sensor_id;sensor_type;location;lat;lon;timestamp;P1;durP1;ratioP1;P2;durP2;ratioP2
16963;SDS011;8598;50.508;10.436;2023-01-15T00:01:39;2.20;;;1.90;;
16963;SDS011;8598;50.508;10.436;2023-01-15T00:04:06;2.77;;;2.20;;
16963;SDS011;8598;50.508;10.436;2023-01-15T00:06:34;5.80;;;1.93;;
16963;SDS011;8598;50.508;10.436;2023-01-15T00:09:02;3.03;;;2.00;;
16963;SDS011;8598;50.508;10.436;2023-01-15T00:11:31;2.17;;;1.90;;
16963;SDS011;8598;50.508;10.436;2023-01-15T00:13:58;2.53;;;1.93;;
16963;SDS011;8598;50.508;10.436;2023-01-15T00:16:25;2.47;;;1.70;;
16963;SDS011;8598;50.508;10.436;2023-01-15T00:18:53;1.97;;;1.77;;
16963;SDS011;8598;50.508;10.436;2023-01-15T00:21:20;2.17;;;1.60;;
16963;SDS011;8598;50.508;10.436;2023-01-15T00:23:48;1.80;;;1.70;;
16963;SDS011;8598;50.508;10.436;2023-01-15T00:26:35;2.03;;;1.57;;
16963;SDS011;8598;50.508;10.436;2023-01-15T00:29:20;1.50;;;1.40;;
16963;SDS011;8598;50.508;10.436;2023-01-15T00:31:52;2.93;;;1.80;;
16963;SDS011;8598;50.508;10.436;2023-01-15T00:34:20;2.27;;;2.00;;
16963;SDS011;8598;50.508;10.436;2023-01-15T00:36:47;1.97;;;1.67;;
16963;SDS011;8598;50.508;10.436;2023-01-15T00:39:14;2.23;;;1.47;;
16963;SDS011;8598;50.508;10.436;2023-01-15T00:41:42;1.90;;;1.80;;
16963;SDS011;8598;50.508;10.436;2023-01-15T00:44:09;1.87;;;1.77;;
16963;SDS011;8598;50.508;10.436;2023-01-15T00:46:35;2.20;;;2.00;;
16963;SDS011;8598;50.508;10.436;2023-01-15T00:49:02;2.27;;;1.40;;
16963;SDS011;8598;50.508;10.436;2023-01-15T00:51:29;2.03;;;1.90;;
16963;SDS011;8598;50.508;10.436;2023-01-15T00:53:56;1.67;;;1.50;;
16963;SDS011;8598;50.508;10.436;2023-01-15T00:56:22;1.40;;;1.30;;
16963;SDS011;8598;50.508;10.436;2023-01-15T00:58:50;1.63;;;1.53;;
16963;SDS011;8598;50.508;10.436;2023-01-15T01:01:17;1.50;;;1.40;;
16963;SDS011;8598;50.508;10.436;2023-01-15T01:03:44;1.67;;;1.57;;
16963;SDS011;8598;50.508;10.436;2023-01-15T01:06:13;2.33;;;1.40;;
16963;SDS011;8598;50.508;10.436;2023-01-15T01:08:39;1.13;;;1.03;;
16963;SDS011;8598;50.508;10.436;2023-01-15T01:11:07;1.50;;;1.40;;
16963;SDS011;8598;50.508;10.436;2023-01-15T01:13:36;1.33;;;1.13;;
16963;SDS011;8598;50.508;10.436;2023-01-15T01:16:14;1.50;;;1.40;;
16963;SDS011;8598;50.508;10.436;2023-01-15T01:18:47;1.43;;;1.33;;
16963;SDS011;8598;50.508;10.436;2023-01-15T01:21:14;2.57;;;1.00;;
16963;SDS011;8598;50.508;10.436;2023-01-15T01:23:40;1.60;;;1.13;;
16963;SDS011;8598;50.508;10.436;2023-01-15T01:26:07;1.40;;;1.10;;
16963;SDS011;8598;50.508;10.436;2023-01-15T01:28:34;1.20;;;1.10;;
16963;SDS011;8598;50.508;10.436;2023-01-15T01:31:03;1.50;;;1.27;;
16963;SDS011;8598;50.508;10.436;2023-01-15T01:33:31;1.47;;;1.10;;
16963;SDS011;8598;50.508;10.436;2023-01-15T01:35:58;1.33;;;1.10;;
16963;SDS011;8598;50.508;10.436;2023-01-15T01:38:24;1.40;;;1.30;;
16963;SDS011;8598;50.508;10.436;2023-01-15T01:40:51;1.20;;;1.10;;
16963;SDS011;8598;50.508;10.436;2023-01-15T01:43:18;2.10;;;1.20;;
16963;SDS011;8598;50.508;10.436;2023-01-15T01:45:47;2.40;;;1.10;;
16963;SDS011;8598;50.508;10.436;2023-01-15T01:48:15;1.37;;;1.27;;
16963;SDS011;8598;50.508;10.436;2023-01-15T01:50:43;0.90;;;0.90;;
16963;SDS011;8598;50.508;10.436;2023-01-15T01:53:11;1.57;;;1.47;;
16963;SDS011;8598;50.508;10.436;2023-01-15T01:55:42;1.37;;;1.10;;
16963;SDS011;8598;50.508;10.436;2023-01-15T01:58:09;1.27;;;1.17;;
16963;SDS011;8598;50.508;10.436;2023-01-15T02:00:38;1.07;;;1.00;;
16963;SDS011;8598;50.508;10.436;2023-01-15T02:03:09;1.37;;;1.27;;
16963;SDS011;8598;50.508;10.436;2023-01-15T02:05:38;2.50;;;1.30;;
16963;SDS011;8598;50.508;10.436;2023-01-15T02:08:08;0.90;;;0.90;;
16963;SDS011;8598;50.508;10.436;2023-01-15T02:10:35;1.77;;;1.00;;
16963;SDS011;8598;50.508;10.436;2023-01-15T02:13:04;1.10;;;1.00;;
16963;SDS011;8598;50.508;10.436;2023-01-15T02:15:35;1.10;;;1.00;;
16963;SDS011;8598;50.508;10.436;2023-01-15T02:18:08;0.97;;;0.90;;
16963;SDS011;8598;50.508;10.436;2023-01-15T02:20:43;2.60;;;0.80;;
16963;SDS011;8598;50.508;10.436;2023-01-15T02:23:22;1.73;;;1.00;;
16963;SDS011;8598;50.508;10.436;2023-01-15T02:26:12;2.67;;;0.90;;
16963;SDS011;8598;50.508;10.436;2023-01-15T02:29:01;0.90;;;0.90;;
16963;SDS011;8598;50.508;10.436;2023-01-15T02:31:29;0.83;;;0.73;;
16963;SDS011;8598;50.508;10.436;2023-01-15T02:34:01;0.77;;;0.73;;
16963;SDS011;8598;50.508;10.436;2023-01-15T02:36:33;0.93;;;0.93;;
16963;SDS011;8598;50.508;10.436;2023-01-15T02:39:03;0.70;;;0.70;;
16963;SDS011;8598;50.508;10.436;2023-01-15T02:41:35;0.90;;;0.90;;
16963;SDS011;8598;50.508;10.436;2023-01-15T02:44:07;0.80;;;0.80;;
16963;SDS011;8598;50.508;10.436;2023-01-15T02:46:36;0.83;;;0.77;;
16963;SDS011;8598;50.508;10.436;2023-01-15T02:49:04;0.77;;;0.77;;
16963;SDS011;8598;50.508;10.436;2023-01-15T02:51:35;0.90;;;0.90;;
16963;SDS011;8598;50.508;10.436;2023-01-15T02:54:05;0.60;;;0.60;;
16963;SDS011;8598;50.508;10.436;2023-01-15T02:56:36;1.03;;;1.03;;
16963;SDS011;8598;50.508;10.436;2023-01-15T02:59:09;0.60;;;0.60;;
16963;SDS011;8598;50.508;10.436;2023-01-15T03:01:39;0.70;;;0.70;;
16963;SDS011;8598;50.508;10.436;2023-01-15T03:04:11;1.80;;;0.70;;
16963;SDS011;8598;50.508;10.436;2023-01-15T03:06:41;0.57;;;0.57;;
16963;SDS011;8598;50.508;10.436;2023-01-15T03:09:13;0.67;;;0.67;;
16963;SDS011;8598;50.508;10.436;2023-01-15T03:11:42;0.70;;;0.70;;
16963;SDS011;8598;50.508;10.436;2023-01-15T03:14:15;0.50;;;0.50;;
16963;SDS011;8598;50.508;10.436;2023-01-15T03:16:46;0.97;;;0.60;;
16963;SDS011;8598;50.508;10.436;2023-01-15T03:19:19;0.50;;;0.50;;
16963;SDS011;8598;50.508;10.436;2023-01-15T03:21:52;0.50;;;0.50;;
16963;SDS011;8598;50.508;10.436;2023-01-15T03:24:24;0.50;;;0.50;;
16963;SDS011;8598;50.508;10.436;2023-01-15T03:26:56;0.63;;;0.63;;
16963;SDS011;8598;50.508;10.436;2023-01-15T03:29:26;0.60;;;0.60;;
16963;SDS011;8598;50.508;10.436;2023-01-15T03:31:55;0.50;;;0.50;;
16963;SDS011;8598;50.508;10.436;2023-01-15T03:34:24;0.53;;;0.53;;
16963;SDS011;8598;50.508;10.436;2023-01-15T03:36:54;0.60;;;0.60;;
16963;SDS011;8598;50.508;10.436;2023-01-15T03:39:21;0.50;;;0.50;;
16963;SDS011;8598;50.508;10.436;2023-01-15T03:41:49;0.70;;;0.70;;
16963;SDS011;8598;50.508;10.436;2023-01-15T03:44:30;0.53;;;0.53;;
16963;SDS011;8598;50.508;10.436;2023-01-15T03:47:05;0.47;;;0.47;;
16963;SDS011;8598;50.508;10.436;2023-01-15T03:49:43;0.60;;;0.60;;
16963;SDS011;8598;50.508;10.436;2023-01-15T03:52:18;0.50;;;0.50;;
16963;SDS011;8598;50.508;10.436;2023-01-15T03:54:50;0.63;;;0.63;;
16963;SDS011;8598;50.508;10.436;2023-01-15T03:57:26;0.60;;;0.60;;
16963;SDS011;8598;50.508;10.436;2023-01-15T04:00:03;0.93;;;0.50;;
16963;SDS011;8598;50.508;10.436;2023-01-15T04:02:34;0.50;;;0.50;;
16963;SDS011;8598;50.508;10.436;2023-01-15T04:05:02;0.53;;;0.53;;
16963;SDS011;8598;50.508;10.436;2023-01-15T04:07:29;0.70;;;0.70;;
16963;SDS011;8598;50.508;10.436;2023-01-15T04:09:57;0.50;;;0.50;;
16963;SDS011;8598;50.508;10.436;2023-01-15T04:12:23;0.70;;;0.70;;
16963;SDS011;8598;50.508;10.436;2023-01-15T04:14:52;0.57;;;0.57;;
16963;SDS011;8598;50.508;10.436;2023-01-15T04:17:20;0.80;;;0.80;;
16963;SDS011;8598;50.508;10.436;2023-01-15T04:19:46;0.60;;;0.60;;
16963;SDS011;8598;50.508;10.436;2023-01-15T04:22:13;0.70;;;0.70;;
16963;SDS011;8598;50.508;10.436;2023-01-15T04:24:39;0.50;;;0.50;;
16963;SDS011;8598;50.508;10.436;2023-01-15T04:27:06;0.70;;;0.70;;
16963;SDS011;8598;50.508;10.436;2023-01-15T04:29:33;0.60;;;0.60;;
16963;SDS011;8598;50.508;10.436;2023-01-15T04:31:59;0.63;;;0.63;;
16963;SDS011;8598;50.508;10.436;2023-01-15T04:34:28;0.73;;;0.73;;
16963;SDS011;8598;50.508;10.436;2023-01-15T04:36:55;0.60;;;0.60;;
16963;SDS011;8598;50.508;10.436;2023-01-15T04:39:22;0.90;;;0.90;;
16963;SDS011;8598;50.508;10.436;2023-01-15T04:41:48;0.83;;;0.83;;
16963;SDS011;8598;50.508;10.436;2023-01-15T04:44:33;0.93;;;0.93;;
16963;SDS011;8598;50.508;10.436;2023-01-15T04:47:00;0.70;;;0.70;;
16963;SDS011;8598;50.508;10.436;2023-01-15T04:49:28;1.40;;;1.30;;
16963;SDS011;8598;50.508;10.436;2023-01-15T04:51:55;1.57;;;1.47;;
16963;SDS011;8598;50.508;10.436;2023-01-15T04:54:22;2.10;;;1.30;;
16963;SDS011;8598;50.508;10.436;2023-01-15T04:56:49;2.70;;;2.50;;
16963;SDS011;8598;50.508;10.436;2023-01-15T04:59:17;2.47;;;1.80;;
16963;SDS011;8598;50.508;10.436;2023-01-15T05:01:45;4.17;;;3.77;;
16963;SDS011;8598;50.508;10.436;2023-01-15T05:04:12;4.00;;;3.67;;
16963;SDS011;8598;50.508;10.436;2023-01-15T05:06:40;1.57;;;1.47;;
16963;SDS011;8598;50.508;10.436;2023-01-15T05:09:07;4.10;;;3.70;;
16963;SDS011;8598;50.508;10.436;2023-01-15T05:11:34;3.77;;;2.80;;
16963;SDS011;8598;50.508;10.436;2023-01-15T05:14:01;2.17;;;1.97;;
16963;SDS011;8598;50.508;10.436;2023-01-15T05:16:28;2.47;;;2.27;;
16963;SDS011;8598;50.508;10.436;2023-01-15T05:18:56;1.80;;;1.70;;
16963;SDS011;8598;50.508;10.436;2023-01-15T05:21:25;1.10;;;1.10;;
16963;SDS011;8598;50.508;10.436;2023-01-15T05:23:57;1.00;;;1.00;;
16963;SDS011;8598;50.508;10.436;2023-01-15T05:26:24;1.70;;;1.60;;
16963;SDS011;8598;50.508;10.436;2023-01-15T05:28:52;1.63;;;1.53;;
16963;SDS011;8598;50.508;10.436;2023-01-15T05:31:20;1.27;;;1.17;;
16963;SDS011;8598;50.508;10.436;2023-01-15T05:33:47;1.80;;;1.00;;
16963;SDS011;8598;50.508;10.436;2023-01-15T05:36:15;1.30;;;1.00;;
16963;SDS011;8598;50.508;10.436;2023-01-15T05:38:43;0.90;;;0.90;;
16963;SDS011;8598;50.508;10.436;2023-01-15T05:41:12;1.60;;;1.30;;
16963;SDS011;8598;50.508;10.436;2023-01-15T05:43:58;0.80;;;0.80;;
16963;SDS011;8598;50.508;10.436;2023-01-15T05:46:26;1.00;;;1.00;;
16963;SDS011;8598;50.508;10.436;2023-01-15T05:48:53;0.90;;;0.90;;
16963;SDS011;8598;50.508;10.436;2023-01-15T05:51:20;1.40;;;1.30;;
16963;SDS011;8598;50.508;10.436;2023-01-15T05:53:46;3.00;;;2.50;;
16963;SDS011;8598;50.508;10.436;2023-01-15T05:56:14;3.20;;;1.90;;
16963;SDS011;8598;50.508;10.436;2023-01-15T05:58:41;3.50;;;2.23;;
16963;SDS011;8598;50.508;10.436;2023-01-15T06:01:08;2.70;;;2.10;;
16963;SDS011;8598;50.508;10.436;2023-01-15T06:03:35;1.77;;;1.50;;
16963;SDS011;8598;50.508;10.436;2023-01-15T06:06:02;1.70;;;1.60;;
16963;SDS011;8598;50.508;10.436;2023-01-15T06:08:29;2.30;;;1.33;;
16963;SDS011;8598;50.508;10.436;2023-01-15T06:10:56;3.83;;;2.83;;
16963;SDS011;8598;50.508;10.436;2023-01-15T06:13:24;3.67;;;2.00;;
16963;SDS011;8598;50.508;10.436;2023-01-15T06:15:51;1.73;;;1.67;;
16963;SDS011;8598;50.508;10.436;2023-01-15T06:18:17;1.90;;;1.80;;
16963;SDS011;8598;50.508;10.436;2023-01-15T06:20:44;1.80;;;1.70;;
16963;SDS011;8598;50.508;10.436;2023-01-15T06:23:11;2.10;;;1.90;;
16963;SDS011;8598;50.508;10.436;2023-01-15T06:25:37;1.33;;;1.23;;
16963;SDS011;8598;50.508;10.436;2023-01-15T06:28:04;1.80;;;1.60;;
16963;SDS011;8598;50.508;10.436;2023-01-15T06:30:33;1.10;;;1.10;;
16963;SDS011;8598;50.508;10.436;2023-01-15T06:33:00;3.03;;;1.13;;
16963;SDS011;8598;50.508;10.436;2023-01-15T06:35:27;1.30;;;1.20;;
16963;SDS011;8598;50.508;10.436;2023-01-15T06:37:54;2.23;;;1.90;;
16963;SDS011;8598;50.508;10.436;2023-01-15T06:40:21;2.13;;;1.73;;
16963;SDS011;8598;50.508;10.436;2023-01-15T06:42:50;1.57;;;1.47;;
16963;SDS011;8598;50.508;10.436;2023-01-15T06:45:37;1.10;;;1.00;;
16963;SDS011;8598;50.508;10.436;2023-01-15T06:48:23;2.20;;;1.27;;
16963;SDS011;8598;50.508;10.436;2023-01-15T06:50:51;1.37;;;1.27;;
16963;SDS011;8598;50.508;10.436;2023-01-15T06:53:18;1.10;;;1.10;;
16963;SDS011;8598;50.508;10.436;2023-01-15T06:55:45;1.40;;;1.30;;
16963;SDS011;8598;50.508;10.436;2023-01-15T06:58:12;2.77;;;1.20;;
16963;SDS011;8598;50.508;10.436;2023-01-15T07:00:40;1.97;;;1.10;;
16963;SDS011;8598;50.508;10.436;2023-01-15T07:03:09;5.33;;;1.50;;
16963;SDS011;8598;50.508;10.436;2023-01-15T07:05:38;2.33;;;1.43;;
16963;SDS011;8598;50.508;10.436;2023-01-15T07:08:04;0.80;;;0.80;;
16963;SDS011;8598;50.508;10.436;2023-01-15T07:10:32;0.80;;;0.80;;
16963;SDS011;8598;50.508;10.436;2023-01-15T07:12:59;5.27;;;1.40;;
16963;SDS011;8598;50.508;10.436;2023-01-15T07:15:25;0.87;;;0.87;;
16963;SDS011;8598;50.508;10.436;2023-01-15T07:17:54;1.83;;;0.90;;
16963;SDS011;8598;50.508;10.436;2023-01-15T07:20:21;0.90;;;0.90;;
16963;SDS011;8598;50.508;10.436;2023-01-15T07:22:48;0.90;;;0.90;;
16963;SDS011;8598;50.508;10.436;2023-01-15T07:25:14;1.00;;;1.00;;
16963;SDS011;8598;50.508;10.436;2023-01-15T07:27:41;0.87;;;0.87;;
16963;SDS011;8598;50.508;10.436;2023-01-15T07:30:08;0.90;;;0.90;;
16963;SDS011;8598;50.508;10.436;2023-01-15T07:32:36;1.27;;;1.17;;
16963;SDS011;8598;50.508;10.436;2023-01-15T07:35:04;0.90;;;0.90;;
16963;SDS011;8598;50.508;10.436;2023-01-15T07:37:31;2.90;;;1.03;;
16963;SDS011;8598;50.508;10.436;2023-01-15T07:39:57;1.10;;;1.00;;
16963;SDS011;8598;50.508;10.436;2023-01-15T07:42:24;1.20;;;1.20;;
16963;SDS011;8598;50.508;10.436;2023-01-15T07:45:09;0.83;;;0.83;;
16963;SDS011;8598;50.508;10.436;2023-01-15T07:47:53;0.80;;;0.80;;
16963;SDS011;8598;50.508;10.436;2023-01-15T07:50:44;1.33;;;0.90;;
16963;SDS011;8598;50.508;10.436;2023-01-15T07:53:10;2.70;;;1.33;;
16963;SDS011;8598;50.508;10.436;2023-01-15T07:55:37;1.80;;;1.70;;
16963;SDS011;8598;50.508;10.436;2023-01-15T07:58:04;0.90;;;0.70;;
16963;SDS011;8598;50.508;10.436;2023-01-15T08:00:30;4.03;;;2.90;;
16963;SDS011;8598;50.508;10.436;2023-01-15T08:02:57;5.63;;;3.43;;
16963;SDS011;8598;50.508;10.436;2023-01-15T08:05:23;5.27;;;2.80;;
16963;SDS011;8598;50.508;10.436;2023-01-15T08:07:51;2.40;;;2.20;;
16963;SDS011;8598;50.508;10.436;2023-01-15T08:10:18;1.67;;;1.57;;
16963;SDS011;8598;50.508;10.436;2023-01-15T08:12:45;1.50;;;1.40;;
16963;SDS011;8598;50.508;10.436;2023-01-15T08:15:32;2.07;;;1.87;;
16963;SDS011;8598;50.508;10.436;2023-01-15T08:18:03;3.43;;;2.60;;
16963;SDS011;8598;50.508;10.436;2023-01-15T08:20:32;3.03;;;2.50;;
16963;SDS011;8598;50.508;10.436;2023-01-15T08:23:01;1.50;;;1.40;;
16963;SDS011;8598;50.508;10.436;2023-01-15T08:25:28;1.80;;;1.57;;
16963;SDS011;8598;50.508;10.436;2023-01-15T08:27:58;1.80;;;1.70;;
16963;SDS011;8598;50.508;10.436;2023-01-15T08:30:25;1.43;;;1.33;;
16963;SDS011;8598;50.508;10.436;2023-01-15T08:32:57;1.40;;;1.23;;
16963;SDS011;8598;50.508;10.436;2023-01-15T08:35:24;1.37;;;1.27;;
16963;SDS011;8598;50.508;10.436;2023-01-15T08:37:51;1.63;;;1.53;;
16963;SDS011;8598;50.508;10.436;2023-01-15T08:40:19;5.73;;;3.53;;
16963;SDS011;8598;50.508;10.436;2023-01-15T08:42:45;7.60;;;4.20;;
16963;SDS011;8598;50.508;10.436;2023-01-15T08:45:12;2.43;;;2.10;;
16963;SDS011;8598;50.508;10.436;2023-01-15T08:47:39;6.07;;;2.50;;
16963;SDS011;8598;50.508;10.436;2023-01-15T08:50:06;1.50;;;1.40;;
16963;SDS011;8598;50.508;10.436;2023-01-15T08:52:33;1.47;;;1.37;;
16963;SDS011;8598;50.508;10.436;2023-01-15T08:55:01;1.63;;;1.53;;
16963;SDS011;8598;50.508;10.436;2023-01-15T08:57:29;3.73;;;1.60;;
16963;SDS011;8598;50.508;10.436;2023-01-15T08:59:56;1.20;;;1.10;;
16963;SDS011;8598;50.508;10.436;2023-01-15T09:02:23;1.50;;;0.80;;
16963;SDS011;8598;50.508;10.436;2023-01-15T09:04:49;1.00;;;1.00;;
16963;SDS011;8598;50.508;10.436;2023-01-15T09:07:16;1.03;;;1.00;;
16963;SDS011;8598;50.508;10.436;2023-01-15T09:09:43;1.00;;;1.00;;
16963;SDS011;8598;50.508;10.436;2023-01-15T09:12:09;1.83;;;1.73;;
16963;SDS011;8598;50.508;10.436;2023-01-15T09:14:37;1.50;;;1.40;;
16963;SDS011;8598;50.508;10.436;2023-01-15T09:17:04;1.30;;;1.20;;
16963;SDS011;8598;50.508;10.436;2023-01-15T09:19:30;1.63;;;1.50;;
16963;SDS011;8598;50.508;10.436;2023-01-15T09:21:57;1.50;;;1.40;;
16963;SDS011;8598;50.508;10.436;2023-01-15T09:24:24;1.70;;;1.60;;
16963;SDS011;8598;50.508;10.436;2023-01-15T09:26:50;17.90;;;7.97;;
16963;SDS011;8598;50.508;10.436;2023-01-15T09:29:17;3.27;;;2.57;;
16963;SDS011;8598;50.508;10.436;2023-01-15T09:31:45;3.93;;;1.83;;
16963;SDS011;8598;50.508;10.436;2023-01-15T09:34:12;2.20;;;1.83;;
16963;SDS011;8598;50.508;10.436;2023-01-15T09:36:39;1.90;;;1.80;;
16963;SDS011;8598;50.508;10.436;2023-01-15T09:39:05;3.07;;;2.77;;
16963;SDS011;8598;50.508;10.436;2023-01-15T09:41:34;3.23;;;2.80;;
16963;SDS011;8598;50.508;10.436;2023-01-15T09:44:43;2.57;;;1.97;;
16963;SDS011;8598;50.508;10.436;2023-01-15T09:47:21;4.83;;;3.83;;
16963;SDS011;8598;50.508;10.436;2023-01-15T09:49:56;4.20;;;1.70;;
16963;SDS011;8598;50.508;10.436;2023-01-15T09:52:33;1.50;;;1.40;;
16963;SDS011;8598;50.508;10.436;2023-01-15T09:55:12;1.00;;;1.00;;
16963;SDS011;8598;50.508;10.436;2023-01-15T09:57:41;3.13;;;1.77;;
16963;SDS011;8598;50.508;10.436;2023-01-15T10:00:12;14.97;;;7.77;;
16963;SDS011;8598;50.508;10.436;2023-01-15T10:02:45;9.20;;;6.77;;
16963;SDS011;8598;50.508;10.436;2023-01-15T10:05:16;2.00;;;1.90;;
16963;SDS011;8598;50.508;10.436;2023-01-15T10:07:49;1.40;;;1.30;;
16963;SDS011;8598;50.508;10.436;2023-01-15T10:10:23;1.40;;;1.30;;
16963;SDS011;8598;50.508;10.436;2023-01-15T10:12:59;3.90;;;3.27;;
16963;SDS011;8598;50.508;10.436;2023-01-15T10:15:33;8.57;;;5.77;;
16963;SDS011;8598;50.508;10.436;2023-01-15T10:18:06;3.87;;;3.07;;
16963;SDS011;8598;50.508;10.436;2023-01-15T10:20:48;1.30;;;1.20;;
16963;SDS011;8598;50.508;10.436;2023-01-15T10:23:36;1.13;;;1.13;;
16963;SDS011;8598;50.508;10.436;2023-01-15T10:26:16;1.00;;;1.00;;
16963;SDS011;8598;50.508;10.436;2023-01-15T10:29:01;2.53;;;1.30;;
16963;SDS011;8598;50.508;10.436;2023-01-15T10:31:36;1.00;;;1.00;;
16963;SDS011;8598;50.508;10.436;2023-01-15T10:37:21;1.67;;;1.57;;
16963;SDS011;8598;50.508;10.436;2023-01-15T10:39:57;1.40;;;1.30;;
16963;SDS011;8598;50.508;10.436;2023-01-15T10:42:40;1.80;;;1.60;;
16963;SDS011;8598;50.508;10.436;2023-01-15T10:45:14;1.63;;;1.53;;
16963;SDS011;8598;50.508;10.436;2023-01-15T10:47:44;1.37;;;1.37;;
16963;SDS011;8598;50.508;10.436;2023-01-15T10:50:17;1.80;;;1.70;;
16963;SDS011;8598;50.508;10.436;2023-01-15T10:52:47;2.10;;;2.00;;
16963;SDS011;8598;50.508;10.436;2023-01-15T10:55:18;1.70;;;1.60;;
16963;SDS011;8598;50.508;10.436;2023-01-15T10:57:50;2.70;;;2.50;;
16963;SDS011;8598;50.508;10.436;2023-01-15T11:00:23;2.50;;;2.30;;
16963;SDS011;8598;50.508;10.436;2023-01-15T11:02:52;2.83;;;2.43;;
16963;SDS011;8598;50.508;10.436;2023-01-15T11:05:25;2.10;;;1.90;;
16963;SDS011;8598;50.508;10.436;2023-01-15T11:07:53;1.80;;;1.70;;
16963;SDS011;8598;50.508;10.436;2023-01-15T11:10:20;4.10;;;2.80;;
16963;SDS011;8598;50.508;10.436;2023-01-15T11:12:49;3.37;;;3.07;;
16963;SDS011;8598;50.508;10.436;2023-01-15T11:15:36;7.53;;;5.47;;
16963;SDS011;8598;50.508;10.436;2023-01-15T11:18:22;3.97;;;3.60;;
16963;SDS011;8598;50.508;10.436;2023-01-15T11:21:10;2.97;;;2.50;;
16963;SDS011;8598;50.508;10.436;2023-01-15T11:23:39;8.27;;;5.00;;
16963;SDS011;8598;50.508;10.436;2023-01-15T11:26:06;10.07;;;4.67;;
16963;SDS011;8598;50.508;10.436;2023-01-15T11:28:34;43.13;;;18.20;;
16963;SDS011;8598;50.508;10.436;2023-01-15T11:31:04;21.10;;;9.00;;
16963;SDS011;8598;50.508;10.436;2023-01-15T11:33:31;24.57;;;10.87;;
16963;SDS011;8598;50.508;10.436;2023-01-15T11:35:59;23.77;;;11.40;;
16963;SDS011;8598;50.508;10.436;2023-01-15T11:38:28;32.30;;;15.67;;
16963;SDS011;8598;50.508;10.436;2023-01-15T11:40:58;59.13;;;35.13;;
16963;SDS011;8598;50.508;10.436;2023-01-15T11:43:27;27.03;;;17.40;;
16963;SDS011;8598;50.508;10.436;2023-01-15T11:46:22;8.23;;;7.27;;
16963;SDS011;8598;50.508;10.436;2023-01-15T11:49:12;3.20;;;2.90;;
16963;SDS011;8598;50.508;10.436;2023-01-15T11:51:59;2.87;;;2.67;;
16963;SDS011;8598;50.508;10.436;2023-01-15T11:54:28;2.23;;;2.07;;
16963;SDS011;8598;50.508;10.436;2023-01-15T11:56:57;2.27;;;1.97;;
16963;SDS011;8598;50.508;10.436;2023-01-15T11:59:24;2.27;;;2.07;;
16963;SDS011;8598;50.508;10.436;2023-01-15T12:01:51;1.50;;;1.40;;
16963;SDS011;8598;50.508;10.436;2023-01-15T12:04:24;1.90;;;1.80;;
16963;SDS011;8598;50.508;10.436;2023-01-15T12:06:55;2.00;;;1.83;;
16963;SDS011;8598;50.508;10.436;2023-01-15T12:09:24;2.17;;;1.70;;
16963;SDS011;8598;50.508;10.436;2023-01-15T12:12:01;2.60;;;2.23;;
16963;SDS011;8598;50.508;10.436;2023-01-15T12:14:37;4.60;;;2.50;;
16963;SDS011;8598;50.508;10.436;2023-01-15T12:17:24;4.17;;;2.80;;
16963;SDS011;8598;50.508;10.436;2023-01-15T12:20:04;4.20;;;2.57;;
16963;SDS011;8598;50.508;10.436;2023-01-15T12:22:48;2.87;;;2.27;;
16963;SDS011;8598;50.508;10.436;2023-01-15T12:25:30;6.47;;;3.47;;
16963;SDS011;8598;50.508;10.436;2023-01-15T12:28:03;4.80;;;3.40;;
16963;SDS011;8598;50.508;10.436;2023-01-15T12:30:37;8.13;;;4.43;;
16963;SDS011;8598;50.508;10.436;2023-01-15T12:33:12;3.73;;;1.60;;
16963;SDS011;8598;50.508;10.436;2023-01-15T12:35:46;2.53;;;2.00;;
16963;SDS011;8598;50.508;10.436;2023-01-15T12:38:21;4.00;;;3.10;;
16963;SDS011;8598;50.508;10.436;2023-01-15T12:40:56;4.30;;;3.67;;
16963;SDS011;8598;50.508;10.436;2023-01-15T12:43:28;1.90;;;1.80;;
16963;SDS011;8598;50.508;10.436;2023-01-15T12:46:13;3.07;;;2.77;;
16963;SDS011;8598;50.508;10.436;2023-01-15T12:48:44;2.50;;;2.30;;
16963;SDS011;8598;50.508;10.436;2023-01-15T12:51:17;1.50;;;1.40;;
16963;SDS011;8598;50.508;10.436;2023-01-15T12:53:53;2.00;;;1.80;;
16963;SDS011;8598;50.508;10.436;2023-01-15T12:56:24;3.13;;;2.70;;
16963;SDS011;8598;50.508;10.436;2023-01-15T12:58:58;5.33;;;2.57;;
16963;SDS011;8598;50.508;10.436;2023-01-15T13:01:30;1.97;;;1.80;;
16963;SDS011;8598;50.508;10.436;2023-01-15T13:04:05;1.80;;;1.70;;
16963;SDS011;8598;50.508;10.436;2023-01-15T13:06:39;2.30;;;2.10;;
16963;SDS011;8598;50.508;10.436;2023-01-15T13:09:12;3.67;;;1.87;;
16963;SDS011;8598;50.508;10.436;2023-01-15T13:11:44;4.53;;;1.97;;
16963;SDS011;8598;50.508;10.436;2023-01-15T13:14:13;2.30;;;2.07;;
16963;SDS011;8598;50.508;10.436;2023-01-15T13:16:42;1.70;;;1.60;;
16963;SDS011;8598;50.508;10.436;2023-01-15T13:19:22;2.10;;;1.90;;
16963;SDS011;8598;50.508;10.436;2023-01-15T13:21:58;3.53;;;1.80;;
16963;SDS011;8598;50.508;10.436;2023-01-15T13:24:38;5.97;;;3.07;;
16963;SDS011;8598;50.508;10.436;2023-01-15T13:27:22;4.67;;;2.73;;
16963;SDS011;8598;50.508;10.436;2023-01-15T13:30:00;4.87;;;3.60;;
16963;SDS011;8598;50.508;10.436;2023-01-15T13:32:41;6.67;;;3.63;;
16963;SDS011;8598;50.508;10.436;2023-01-15T13:35:11;2.70;;;2.23;;
16963;SDS011;8598;50.508;10.436;2023-01-15T13:37:46;5.10;;;3.20;;
16963;SDS011;8598;50.508;10.436;2023-01-15T13:40:17;6.67;;;3.30;;
16963;SDS011;8598;50.508;10.436;2023-01-15T13:42:48;6.50;;;4.10;;
16963;SDS011;8598;50.508;10.436;2023-01-15T13:45:21;2.40;;;2.20;;
16963;SDS011;8598;50.508;10.436;2023-01-15T13:47:52;1.90;;;1.80;;
16963;SDS011;8598;50.508;10.436;2023-01-15T13:50:26;1.90;;;1.77;;
16963;SDS011;8598;50.508;10.436;2023-01-15T13:55:48;5.97;;;3.23;;
16963;SDS011;8598;50.508;10.436;2023-01-15T13:58:18;2.30;;;1.90;;
16963;SDS011;8598;50.508;10.436;2023-01-15T14:00:58;2.70;;;2.10;;
16963;SDS011;8598;50.508;10.436;2023-01-15T14:03:27;3.27;;;2.30;;
16963;SDS011;8598;50.508;10.436;2023-01-15T14:05:55;1.53;;;1.43;;
16963;SDS011;8598;50.508;10.436;2023-01-15T14:08:24;1.40;;;1.30;;
16963;SDS011;8598;50.508;10.436;2023-01-15T14:10:52;4.23;;;1.70;;
16963;SDS011;8598;50.508;10.436;2023-01-15T14:13:25;1.93;;;1.80;;
16963;SDS011;8598;50.508;10.436;2023-01-15T14:16:10;3.83;;;2.33;;
16963;SDS011;8598;50.508;10.436;2023-01-15T14:18:54;6.27;;;4.57;;
16963;SDS011;8598;50.508;10.436;2023-01-15T14:21:32;2.33;;;1.77;;
16963;SDS011;8598;50.508;10.436;2023-01-15T14:24:24;3.50;;;2.13;;
16963;SDS011;8598;50.508;10.436;2023-01-15T14:27:11;5.07;;;3.47;;
16963;SDS011;8598;50.508;10.436;2023-01-15T14:29:49;3.20;;;2.17;;
16963;SDS011;8598;50.508;10.436;2023-01-15T14:32:33;4.50;;;2.13;;
16963;SDS011;8598;50.508;10.436;2023-01-15T14:35:10;3.50;;;2.50;;
16963;SDS011;8598;50.508;10.436;2023-01-15T14:37:43;2.53;;;2.33;;
16963;SDS011;8598;50.508;10.436;2023-01-15T14:40:18;5.00;;;2.03;;
16963;SDS011;8598;50.508;10.436;2023-01-15T14:42:50;4.90;;;2.07;;
16963;SDS011;8598;50.508;10.436;2023-01-15T14:45:29;3.37;;;3.07;;
16963;SDS011;8598;50.508;10.436;2023-01-15T14:48:02;6.83;;;3.80;;
16963;SDS011;8598;50.508;10.436;2023-01-15T14:50:34;6.53;;;4.07;;
16963;SDS011;8598;50.508;10.436;2023-01-15T14:53:17;7.93;;;4.90;;
16963;SDS011;8598;50.508;10.436;2023-01-15T14:55:55;5.03;;;3.57;;
16963;SDS011;8598;50.508;10.436;2023-01-15T14:58:32;18.40;;;11.90;;
16963;SDS011;8598;50.508;10.436;2023-01-15T15:01:09;10.67;;;5.57;;
16963;SDS011;8598;50.508;10.436;2023-01-15T15:03:44;11.87;;;6.60;;
16963;SDS011;8598;50.508;10.436;2023-01-15T15:06:15;5.90;;;2.40;;
16963;SDS011;8598;50.508;10.436;2023-01-15T15:08:42;10.93;;;6.70;;
16963;SDS011;8598;50.508;10.436;2023-01-15T15:11:15;16.40;;;7.70;;
16963;SDS011;8598;50.508;10.436;2023-01-15T15:14:06;5.27;;;3.70;;
16963;SDS011;8598;50.508;10.436;2023-01-15T15:16:39;7.57;;;4.87;;
16963;SDS011;8598;50.508;10.436;2023-01-15T15:19:12;2.30;;;2.03;;